sensor_id;sensor_type;location;lat;lon;timestamp;P1;durP1;ratioP1;P2;durP2;ratioP2
25824;SDS011;13658;44.534;18.694;2022-11-11T00:02:39;100.32;;;54.03;;
25824;SDS011;13658;44.534;18.694;2022-11-11T00:05:24;92.03;;;53.13;;
25824;SDS011;13658;44.534;18.694;2022-11-11T00:08:09;96.85;;;53.40;;
25824;SDS011;13658;44.534;18.694;2022-11-11T00:10:58;86.72;;;51.20;;
25824;SDS011;13658;44.534;18.694;2022-11-11T00:13:44;89.53;;;52.20;;
25824;SDS011;13658;44.534;18.694;2022-11-11T00:16:29;94.57;;;52.42;;
25824;SDS011;13658;44.534;18.694;2022-11-11T00:19:33;95.78;;;53.53;;
25824;SDS011;13658;44.534;18.694;2022-11-11T00:22:36;102.47;;;57.45;;
25824;SDS011;13658;44.534;18.694;2022-11-11T00:25:39;101.68;;;56.30;;
25824;SDS011;13658;44.534;18.694;2022-11-11T00:28:24;99.67;;;56.70;;
25824;SDS011;13658;44.534;18.694;2022-11-11T00:31:09;105.70;;;57.22;;
25824;SDS011;13658;44.534;18.694;2022-11-11T00:33:55;96.35;;;55.55;;
25824;SDS011;13658;44.534;18.694;2022-11-11T00:36:39;94.90;;;54.95;;
25824;SDS011;13658;44.534;18.694;2022-11-11T00:39:24;98.72;;;55.05;;
25824;SDS011;13658;44.534;18.694;2022-11-11T00:42:08;100.47;;;55.50;;
25824;SDS011;13658;44.534;18.694;2022-11-11T00:44:53;95.63;;;55.03;;
25824;SDS011;13658;44.534;18.694;2022-11-11T00:47:38;102.78;;;55.50;;
25824;SDS011;13658;44.534;18.694;2022-11-11T00:50:41;100.03;;;54.95;;
25824;SDS011;13658;44.534;18.694;2022-11-11T00:53:41;95.85;;;55.90;;
25824;SDS011;13658;44.534;18.694;2022-11-11T00:56:26;97.97;;;55.03;;
25824;SDS011;13658;44.534;18.694;2022-11-11T00:59:10;98.35;;;54.53;;
25824;SDS011;13658;44.534;18.694;2022-11-11T01:01:55;98.47;;;53.38;;
25824;SDS011;13658;44.534;18.694;2022-11-11T01:04:39;94.32;;;52.45;;
25824;SDS011;13658;44.534;18.694;2022-11-11T01:07:24;99.13;;;51.97;;
25824;SDS011;13658;44.534;18.694;2022-11-11T01:10:08;96.75;;;50.13;;
25824;SDS011;13658;44.534;18.694;2022-11-11T01:12:54;103.63;;;52.28;;
25824;SDS011;13658;44.534;18.694;2022-11-11T01:15:59;102.05;;;52.55;;
25824;SDS011;13658;44.534;18.694;2022-11-11T01:18:45;100.93;;;52.25;;
25824;SDS011;13658;44.534;18.694;2022-11-11T01:21:30;99.97;;;51.97;;
25824;SDS011;13658;44.534;18.694;2022-11-11T01:24:15;120.03;;;54.00;;
25824;SDS011;13658;44.534;18.694;2022-11-11T01:27:00;114.25;;;53.80;;
25824;SDS011;13658;44.534;18.694;2022-11-11T01:29:44;113.32;;;53.47;;
25824;SDS011;13658;44.534;18.694;2022-11-11T01:32:29;122.72;;;54.25;;
25824;SDS011;13658;44.534;18.694;2022-11-11T01:35:13;113.47;;;53.13;;
25824;SDS011;13658;44.534;18.694;2022-11-11T01:37:58;117.97;;;54.53;;
25824;SDS011;13658;44.534;18.694;2022-11-11T01:40:43;112.75;;;54.58;;
25824;SDS011;13658;44.534;18.694;2022-11-11T01:43:28;111.35;;;51.67;;
25824;SDS011;13658;44.534;18.694;2022-11-11T01:46:20;116.47;;;53.60;;
25824;SDS011;13658;44.534;18.694;2022-11-11T01:49:23;107.03;;;49.63;;
25824;SDS011;13658;44.534;18.694;2022-11-11T01:55:32;112.05;;;50.15;;
25824;SDS011;13658;44.534;18.694;2022-11-11T01:58:17;104.60;;;49.17;;
25824;SDS011;13658;44.534;18.694;2022-11-11T02:01:02;97.28;;;49.60;;
25824;SDS011;13658;44.534;18.694;2022-11-11T02:03:46;104.00;;;49.58;;
25824;SDS011;13658;44.534;18.694;2022-11-11T02:06:53;88.97;;;46.13;;
25824;SDS011;13658;44.534;18.694;2022-11-11T02:09:41;90.80;;;46.95;;
25824;SDS011;13658;44.534;18.694;2022-11-11T02:12:29;84.13;;;44.05;;
25824;SDS011;13658;44.534;18.694;2022-11-11T02:15:33;83.95;;;41.63;;
25824;SDS011;13658;44.534;18.694;2022-11-11T02:18:19;80.18;;;41.38;;
25824;SDS011;13658;44.534;18.694;2022-11-11T02:21:03;73.70;;;39.08;;
25824;SDS011;13658;44.534;18.694;2022-11-11T02:24:03;71.80;;;38.40;;
25824;SDS011;13658;44.534;18.694;2022-11-11T02:26:52;74.18;;;37.55;;
25824;SDS011;13658;44.534;18.694;2022-11-11T02:29:38;72.60;;;36.78;;
25824;SDS011;13658;44.534;18.694;2022-11-11T02:32:24;70.57;;;35.83;;
25824;SDS011;13658;44.534;18.694;2022-11-11T02:35:12;69.35;;;33.25;;
25824;SDS011;13658;44.534;18.694;2022-11-11T02:38:02;68.53;;;33.95;;
25824;SDS011;13658;44.534;18.694;2022-11-11T02:40:51;76.65;;;34.33;;
25824;SDS011;13658;44.534;18.694;2022-11-11T02:43:55;72.07;;;32.50;;
25824;SDS011;13658;44.534;18.694;2022-11-11T02:46:39;71.85;;;32.10;;
25824;SDS011;13658;44.534;18.694;2022-11-11T02:49:24;68.72;;;32.47;;
25824;SDS011;13658;44.534;18.694;2022-11-11T02:52:08;65.60;;;31.00;;
25824;SDS011;13658;44.534;18.694;2022-11-11T02:54:53;60.60;;;29.80;;
25824;SDS011;13658;44.534;18.694;2022-11-11T02:57:38;55.08;;;28.45;;
25824;SDS011;13658;44.534;18.694;2022-11-11T03:00:23;61.05;;;27.45;;
25824;SDS011;13658;44.534;18.694;2022-11-11T03:03:08;55.17;;;26.13;;
25824;SDS011;13658;44.534;18.694;2022-11-11T03:05:53;58.40;;;28.33;;
25824;SDS011;13658;44.534;18.694;2022-11-11T03:08:37;55.03;;;26.63;;
25824;SDS011;13658;44.534;18.694;2022-11-11T03:11:22;55.95;;;27.63;;
25824;SDS011;13658;44.534;18.694;2022-11-11T03:14:12;63.65;;;29.17;;
25824;SDS011;13658;44.534;18.694;2022-11-11T03:16:56;60.17;;;27.67;;
25824;SDS011;13658;44.534;18.694;2022-11-11T03:20:00;62.60;;;27.90;;
25824;SDS011;13658;44.534;18.694;2022-11-11T03:23:13;66.90;;;28.17;;
25824;SDS011;13658;44.534;18.694;2022-11-11T03:25:58;73.40;;;28.27;;
25824;SDS011;13658;44.534;18.694;2022-11-11T03:28:43;73.13;;;28.08;;
25824;SDS011;13658;44.534;18.694;2022-11-11T03:31:28;76.90;;;27.95;;
25824;SDS011;13658;44.534;18.694;2022-11-11T03:34:12;70.30;;;27.40;;
25824;SDS011;13658;44.534;18.694;2022-11-11T03:37:03;73.40;;;27.55;;
25824;SDS011;13658;44.534;18.694;2022-11-11T03:40:08;68.63;;;26.77;;
25824;SDS011;13658;44.534;18.694;2022-11-11T03:42:53;75.60;;;27.55;;
25824;SDS011;13658;44.534;18.694;2022-11-11T03:45:38;73.45;;;28.55;;
25824;SDS011;13658;44.534;18.694;2022-11-11T03:48:23;86.05;;;27.25;;
25824;SDS011;13658;44.534;18.694;2022-11-11T03:51:09;97.65;;;28.38;;
25824;SDS011;13658;44.534;18.694;2022-11-11T03:53:53;95.68;;;28.73;;
25824;SDS011;13658;44.534;18.694;2022-11-11T03:56:38;78.63;;;26.98;;
25824;SDS011;13658;44.534;18.694;2022-11-11T03:59:23;84.88;;;28.83;;
25824;SDS011;13658;44.534;18.694;2022-11-11T04:02:10;88.05;;;26.95;;
25824;SDS011;13658;44.534;18.694;2022-11-11T04:05:16;74.28;;;26.20;;
25824;SDS011;13658;44.534;18.694;2022-11-11T04:08:20;100.85;;;26.73;;
25824;SDS011;13658;44.534;18.694;2022-11-11T04:11:24;95.90;;;26.45;;
25824;SDS011;13658;44.534;18.694;2022-11-11T04:14:20;72.65;;;23.55;;
25824;SDS011;13658;44.534;18.694;2022-11-11T04:17:23;74.15;;;22.45;;
25824;SDS011;13658;44.534;18.694;2022-11-11T04:20:08;64.57;;;22.27;;
25824;SDS011;13658;44.534;18.694;2022-11-11T04:23:11;62.83;;;21.77;;
25824;SDS011;13658;44.534;18.694;2022-11-11T04:25:59;74.78;;;24.17;;
25824;SDS011;13658;44.534;18.694;2022-11-11T04:28:43;69.45;;;21.73;;
25824;SDS011;13658;44.534;18.694;2022-11-11T04:31:46;68.65;;;20.92;;
25824;SDS011;13658;44.534;18.694;2022-11-11T04:34:50;45.80;;;19.73;;
25824;SDS011;13658;44.534;18.694;2022-11-11T04:37:37;46.75;;;19.98;;
25824;SDS011;13658;44.534;18.694;2022-11-11T04:40:35;46.08;;;20.73;;
25824;SDS011;13658;44.534;18.694;2022-11-11T04:43:38;45.97;;;20.85;;
25824;SDS011;13658;44.534;18.694;2022-11-11T04:46:40;61.15;;;20.25;;
25824;SDS011;13658;44.534;18.694;2022-11-11T04:49:25;52.90;;;21.00;;
25824;SDS011;13658;44.534;18.694;2022-11-11T04:52:10;54.22;;;21.42;;
25824;SDS011;13658;44.534;18.694;2022-11-11T04:55:09;55.85;;;22.30;;
25824;SDS011;13658;44.534;18.694;2022-11-11T04:58:12;61.28;;;21.52;;
25824;SDS011;13658;44.534;18.694;2022-11-11T05:00:57;47.58;;;21.00;;
25824;SDS011;13658;44.534;18.694;2022-11-11T05:03:42;41.88;;;18.90;;
25824;SDS011;13658;44.534;18.694;2022-11-11T05:06:26;56.05;;;23.20;;
25824;SDS011;13658;44.534;18.694;2022-11-11T05:09:29;49.03;;;20.45;;
25824;SDS011;13658;44.534;18.694;2022-11-11T05:12:14;46.72;;;19.77;;
25824;SDS011;13658;44.534;18.694;2022-11-11T05:14:59;52.20;;;22.10;;
25824;SDS011;13658;44.534;18.694;2022-11-11T05:18:03;37.63;;;19.13;;
25824;SDS011;13658;44.534;18.694;2022-11-11T05:21:09;57.30;;;19.70;;
25824;SDS011;13658;44.534;18.694;2022-11-11T05:24:03;44.00;;;19.50;;
25824;SDS011;13658;44.534;18.694;2022-11-11T05:27:07;50.30;;;21.30;;
25824;SDS011;13658;44.534;18.694;2022-11-11T05:29:51;57.42;;;20.83;;
25824;SDS011;13658;44.534;18.694;2022-11-11T05:32:36;47.95;;;20.80;;
25824;SDS011;13658;44.534;18.694;2022-11-11T05:35:24;50.70;;;20.85;;
25824;SDS011;13658;44.534;18.694;2022-11-11T05:38:09;47.47;;;20.45;;
25824;SDS011;13658;44.534;18.694;2022-11-11T05:41:06;46.65;;;19.35;;
25824;SDS011;13658;44.534;18.694;2022-11-11T05:43:51;44.95;;;20.05;;
25824;SDS011;13658;44.534;18.694;2022-11-11T05:46:35;52.92;;;20.33;;
25824;SDS011;13658;44.534;18.694;2022-11-11T05:49:20;46.55;;;21.55;;
25824;SDS011;13658;44.534;18.694;2022-11-11T05:52:06;40.63;;;19.95;;
25824;SDS011;13658;44.534;18.694;2022-11-11T05:54:53;46.00;;;20.60;;
25824;SDS011;13658;44.534;18.694;2022-11-11T05:57:38;46.30;;;19.77;;
25824;SDS011;13658;44.534;18.694;2022-11-11T06:00:23;41.42;;;19.10;;
25824;SDS011;13658;44.534;18.694;2022-11-11T06:03:07;55.10;;;21.30;;
25824;SDS011;13658;44.534;18.694;2022-11-11T06:05:52;51.70;;;21.92;;
25824;SDS011;13658;44.534;18.694;2022-11-11T06:08:37;51.17;;;22.05;;
25824;SDS011;13658;44.534;18.694;2022-11-11T06:11:21;51.67;;;22.90;;
25824;SDS011;13658;44.534;18.694;2022-11-11T06:14:06;54.50;;;22.95;;
25824;SDS011;13658;44.534;18.694;2022-11-11T06:16:50;51.50;;;21.50;;
25824;SDS011;13658;44.534;18.694;2022-11-11T06:19:35;48.30;;;21.98;;
25824;SDS011;13658;44.534;18.694;2022-11-11T06:22:20;69.95;;;22.73;;
25824;SDS011;13658;44.534;18.694;2022-11-11T06:25:27;53.90;;;24.17;;
25824;SDS011;13658;44.534;18.694;2022-11-11T06:28:32;45.63;;;23.52;;
25824;SDS011;13658;44.534;18.694;2022-11-11T06:31:18;51.10;;;22.83;;
25824;SDS011;13658;44.534;18.694;2022-11-11T06:34:07;52.22;;;23.90;;
25824;SDS011;13658;44.534;18.694;2022-11-11T06:36:51;64.45;;;22.15;;
25824;SDS011;13658;44.534;18.694;2022-11-11T06:39:36;59.13;;;22.17;;
25824;SDS011;13658;44.534;18.694;2022-11-11T06:42:21;56.88;;;21.25;;
25824;SDS011;13658;44.534;18.694;2022-11-11T06:45:05;58.33;;;21.05;;
25824;SDS011;13658;44.534;18.694;2022-11-11T06:47:50;51.75;;;22.38;;
25824;SDS011;13658;44.534;18.694;2022-11-11T06:50:35;62.20;;;24.75;;
25824;SDS011;13658;44.534;18.694;2022-11-11T06:53:20;64.00;;;24.95;;
25824;SDS011;13658;44.534;18.694;2022-11-11T06:56:05;57.65;;;26.90;;
25824;SDS011;13658;44.534;18.694;2022-11-11T06:58:51;62.78;;;26.85;;
25824;SDS011;13658;44.534;18.694;2022-11-11T07:01:35;73.90;;;34.83;;
25824;SDS011;13658;44.534;18.694;2022-11-11T07:04:20;69.43;;;25.55;;
25824;SDS011;13658;44.534;18.694;2022-11-11T07:07:04;61.05;;;26.83;;
25824;SDS011;13658;44.534;18.694;2022-11-11T07:09:49;69.13;;;27.77;;
25824;SDS011;13658;44.534;18.694;2022-11-11T07:12:33;64.68;;;27.13;;
25824;SDS011;13658;44.534;18.694;2022-11-11T07:15:18;66.07;;;26.85;;
25824;SDS011;13658;44.534;18.694;2022-11-11T07:18:03;80.97;;;29.83;;
25824;SDS011;13658;44.534;18.694;2022-11-11T07:20:47;68.32;;;28.98;;
25824;SDS011;13658;44.534;18.694;2022-11-11T07:23:32;87.20;;;28.10;;
25824;SDS011;13658;44.534;18.694;2022-11-11T07:26:16;65.32;;;27.23;;
25824;SDS011;13658;44.534;18.694;2022-11-11T07:29:01;69.50;;;27.38;;
25824;SDS011;13658;44.534;18.694;2022-11-11T07:31:46;70.05;;;29.90;;
25824;SDS011;13658;44.534;18.694;2022-11-11T07:34:30;68.35;;;26.23;;
25824;SDS011;13658;44.534;18.694;2022-11-11T07:37:15;66.78;;;27.48;;
25824;SDS011;13658;44.534;18.694;2022-11-11T07:40:00;69.50;;;28.63;;
25824;SDS011;13658;44.534;18.694;2022-11-11T07:42:44;71.90;;;30.83;;
25824;SDS011;13658;44.534;18.694;2022-11-11T07:45:29;76.20;;;33.08;;
25824;SDS011;13658;44.534;18.694;2022-11-11T07:48:13;75.78;;;31.58;;
25824;SDS011;13658;44.534;18.694;2022-11-11T07:50:58;76.63;;;31.60;;
25824;SDS011;13658;44.534;18.694;2022-11-11T07:53:43;77.57;;;30.83;;
25824;SDS011;13658;44.534;18.694;2022-11-11T07:56:28;75.75;;;31.13;;
25824;SDS011;13658;44.534;18.694;2022-11-11T07:59:12;76.03;;;32.28;;
25824;SDS011;13658;44.534;18.694;2022-11-11T08:01:57;85.82;;;34.50;;
25824;SDS011;13658;44.534;18.694;2022-11-11T08:04:44;85.22;;;34.20;;
25824;SDS011;13658;44.534;18.694;2022-11-11T08:07:32;81.97;;;29.55;;
25824;SDS011;13658;44.534;18.694;2022-11-11T08:10:17;70.55;;;31.23;;
25824;SDS011;13658;44.534;18.694;2022-11-11T08:13:02;77.80;;;34.50;;
25824;SDS011;13658;44.534;18.694;2022-11-11T08:16:09;85.13;;;32.25;;
25824;SDS011;13658;44.534;18.694;2022-11-11T08:18:55;73.80;;;33.10;;
25824;SDS011;13658;44.534;18.694;2022-11-11T08:21:41;83.25;;;37.22;;
25824;SDS011;13658;44.534;18.694;2022-11-11T08:24:25;92.55;;;40.03;;
25824;SDS011;13658;44.534;18.694;2022-11-11T08:27:10;103.15;;;46.83;;
25824;SDS011;13658;44.534;18.694;2022-11-11T08:29:54;100.45;;;43.40;;
25824;SDS011;13658;44.534;18.694;2022-11-11T08:32:39;107.05;;;43.50;;
25824;SDS011;13658;44.534;18.694;2022-11-11T08:35:24;112.03;;;44.85;;
25824;SDS011;13658;44.534;18.694;2022-11-11T08:38:10;97.03;;;44.88;;
25824;SDS011;13658;44.534;18.694;2022-11-11T08:40:59;105.05;;;46.33;;
25824;SDS011;13658;44.534;18.694;2022-11-11T08:43:45;107.28;;;48.03;;
25824;SDS011;13658;44.534;18.694;2022-11-11T08:46:30;88.28;;;40.30;;
25824;SDS011;13658;44.534;18.694;2022-11-11T08:49:14;88.68;;;39.63;;
25824;SDS011;13658;44.534;18.694;2022-11-11T08:51:59;95.88;;;42.97;;
25824;SDS011;13658;44.534;18.694;2022-11-11T08:54:43;95.30;;;42.15;;
25824;SDS011;13658;44.534;18.694;2022-11-11T08:57:28;95.93;;;42.38;;
25824;SDS011;13658;44.534;18.694;2022-11-11T09:00:13;99.57;;;43.17;;
25824;SDS011;13658;44.534;18.694;2022-11-11T09:03:02;98.63;;;42.33;;
25824;SDS011;13658;44.534;18.694;2022-11-11T09:05:48;112.80;;;54.25;;
25824;SDS011;13658;44.534;18.694;2022-11-11T09:08:33;103.65;;;46.58;;
25824;SDS011;13658;44.534;18.694;2022-11-11T09:11:17;108.47;;;44.87;;
25824;SDS011;13658;44.534;18.694;2022-11-11T09:14:02;117.45;;;47.65;;
25824;SDS011;13658;44.534;18.694;2022-11-11T09:16:47;146.85;;;51.03;;
25824;SDS011;13658;44.534;18.694;2022-11-11T09:19:31;157.77;;;51.22;;
25824;SDS011;13658;44.534;18.694;2022-11-11T09:22:16;165.52;;;51.78;;
25824;SDS011;13658;44.534;18.694;2022-11-11T09:25:04;185.88;;;53.05;;
25824;SDS011;13658;44.534;18.694;2022-11-11T09:27:56;170.13;;;51.78;;
25824;SDS011;13658;44.534;18.694;2022-11-11T09:30:42;176.88;;;50.83;;
25824;SDS011;13658;44.534;18.694;2022-11-11T09:33:26;180.30;;;54.78;;
25824;SDS011;13658;44.534;18.694;2022-11-11T09:36:11;195.23;;;56.22;;
25824;SDS011;13658;44.534;18.694;2022-11-11T09:38:56;185.63;;;51.78;;
25824;SDS011;13658;44.534;18.694;2022-11-11T09:44:40;238.07;;;61.50;;
25824;SDS011;13658;44.534;18.694;2022-11-11T09:50:25;249.77;;;68.20;;
25824;SDS011;13658;44.534;18.694;2022-11-11T09:56:13;216.05;;;62.05;;
25824;SDS011;13658;44.534;18.694;2022-11-11T10:01:58;253.18;;;69.97;;
25824;SDS011;13658;44.534;18.694;2022-11-11T10:04:50;230.48;;;66.65;;
25824;SDS011;13658;44.534;18.694;2022-11-11T10:07:58;193.90;;;57.83;;
25824;SDS011;13658;44.534;18.694;2022-11-11T10:10:49;186.43;;;56.58;;
25824;SDS011;13658;44.534;18.694;2022-11-11T10:13:36;183.52;;;54.20;;
25824;SDS011;13658;44.534;18.694;2022-11-11T10:19:16;153.68;;;51.22;;
25824;SDS011;13658;44.534;18.694;2022-11-11T10:22:30;164.18;;;51.85;;
25824;SDS011;13658;44.534;18.694;2022-11-11T10:25:22;174.57;;;52.50;;
25824;SDS011;13658;44.534;18.694;2022-11-11T10:28:12;191.25;;;55.42;;
25824;SDS011;13658;44.534;18.694;2022-11-11T10:31:00;171.40;;;52.92;;
25824;SDS011;13658;44.534;18.694;2022-11-11T10:34:01;174.90;;;53.17;;
25824;SDS011;13658;44.534;18.694;2022-11-11T10:36:56;183.20;;;53.58;;
25824;SDS011;13658;44.534;18.694;2022-11-11T10:42:53;169.13;;;52.05;;
25824;SDS011;13658;44.534;18.694;2022-11-11T10:45:45;184.65;;;54.58;;
25824;SDS011;13658;44.534;18.694;2022-11-11T10:48:55;197.35;;;57.00;;
25824;SDS011;13658;44.534;18.694;2022-11-11T10:52:04;184.90;;;53.17;;
25824;SDS011;13658;44.534;18.694;2022-11-11T10:55:15;160.23;;;49.00;;
25824;SDS011;13658;44.534;18.694;2022-11-11T11:01:12;143.40;;;48.17;;
25824;SDS011;13658;44.534;18.694;2022-11-11T11:04:05;145.77;;;46.67;;
25824;SDS011;13658;44.534;18.694;2022-11-11T11:06:58;126.68;;;45.55;;
25824;SDS011;13658;44.534;18.694;2022-11-11T11:09:52;114.97;;;42.83;;
25824;SDS011;13658;44.534;18.694;2022-11-11T11:12:48;97.85;;;40.75;;
25824;SDS011;13658;44.534;18.694;2022-11-11T11:15:53;109.70;;;46.33;;
25824;SDS011;13658;44.534;18.694;2022-11-11T11:18:40;90.13;;;40.28;;
25824;SDS011;13658;44.534;18.694;2022-11-11T11:21:25;98.82;;;43.30;;
25824;SDS011;13658;44.534;18.694;2022-11-11T11:24:18;96.97;;;42.30;;
25824;SDS011;13658;44.534;18.694;2022-11-11T11:27:04;112.38;;;43.53;;
25824;SDS011;13658;44.534;18.694;2022-11-11T11:29:50;87.75;;;38.97;;
25824;SDS011;13658;44.534;18.694;2022-11-11T11:32:34;68.40;;;32.85;;
25824;SDS011;13658;44.534;18.694;2022-11-11T11:35:38;50.30;;;29.13;;
25824;SDS011;13658;44.534;18.694;2022-11-11T11:38:46;56.38;;;30.60;;
25824;SDS011;13658;44.534;18.694;2022-11-11T11:41:43;52.30;;;27.88;;
25824;SDS011;13658;44.534;18.694;2022-11-11T11:44:35;61.13;;;32.65;;
25824;SDS011;13658;44.534;18.694;2022-11-11T11:56:14;61.05;;;31.63;;
25824;SDS011;13658;44.534;18.694;2022-11-11T12:08:49;55.95;;;31.67;;
25824;SDS011;13658;44.534;18.694;2022-11-11T12:21:02;54.25;;;31.67;;
25824;SDS011;13658;44.534;18.694;2022-11-11T12:35:48;65.93;;;35.53;;
25824;SDS011;13658;44.534;18.694;2022-11-11T12:41:48;69.95;;;33.95;;
25824;SDS011;13658;44.534;18.694;2022-11-11T12:54:33;69.32;;;34.17;;
25824;SDS011;13658;44.534;18.694;2022-11-11T12:57:58;75.25;;;40.13;;
25824;SDS011;13658;44.534;18.694;2022-11-11T13:00:59;54.22;;;29.30;;
25824;SDS011;13658;44.534;18.694;2022-11-11T13:03:47;56.28;;;29.75;;
25824;SDS011;13658;44.534;18.694;2022-11-11T13:09:50;51.33;;;27.10;;
25824;SDS011;13658;44.534;18.694;2022-11-11T13:13:00;52.55;;;26.60;;
25824;SDS011;13658;44.534;18.694;2022-11-11T13:16:07;57.15;;;30.13;;
25824;SDS011;13658;44.534;18.694;2022-11-11T13:19:13;51.05;;;28.83;;
25824;SDS011;13658;44.534;18.694;2022-11-11T13:22:13;53.03;;;28.80;;
25824;SDS011;13658;44.534;18.694;2022-11-11T13:25:22;59.75;;;33.03;;
25824;SDS011;13658;44.534;18.694;2022-11-11T13:28:16;45.90;;;22.52;;
25824;SDS011;13658;44.534;18.694;2022-11-11T13:34:19;47.25;;;23.90;;
25824;SDS011;13658;44.534;18.694;2022-11-11T13:37:05;44.85;;;24.75;;
25824;SDS011;13658;44.534;18.694;2022-11-11T13:40:01;41.88;;;22.70;;
25824;SDS011;13658;44.534;18.694;2022-11-11T13:42:49;42.78;;;22.63;;
25824;SDS011;13658;44.534;18.694;2022-11-11T13:45:36;38.42;;;21.70;;
25824;SDS011;13658;44.534;18.694;2022-11-11T13:51:21;42.58;;;22.63;;
25824;SDS011;13658;44.534;18.694;2022-11-11T13:54:39;45.70;;;25.63;;
25824;SDS011;13658;44.534;18.694;2022-11-11T13:57:31;44.63;;;23.88;;
25824;SDS011;13658;44.534;18.694;2022-11-11T14:09:00;89.10;;;39.53;;
25824;SDS011;13658;44.534;18.694;2022-11-11T14:11:46;85.45;;;38.03;;
25824;SDS011;13658;44.534;18.694;2022-11-11T14:17:15;71.50;;;31.17;;
25824;SDS011;13658;44.534;18.694;2022-11-11T14:29:01;79.63;;;32.80;;
25824;SDS011;13658;44.534;18.694;2022-11-11T14:47:18;91.55;;;35.88;;
25824;SDS011;13658;44.534;18.694;2022-11-11T14:53:16;150.80;;;53.95;;
25824;SDS011;13658;44.534;18.694;2022-11-11T14:56:03;134.70;;;57.88;;
25824;SDS011;13658;44.534;18.694;2022-11-11T14:58:57;120.45;;;49.83;;
25824;SDS011;13658;44.534;18.694;2022-11-11T15:01:52;143.75;;;58.50;;
25824;SDS011;13658;44.534;18.694;2022-11-11T15:04:37;130.23;;;49.47;;
25824;SDS011;13658;44.534;18.694;2022-11-11T15:13:54;176.02;;;71.22;;
25824;SDS011;13658;44.534;18.694;2022-11-11T15:31:53;103.45;;;44.95;;
25824;SDS011;13658;44.534;18.694;2022-11-11T15:37:49;85.82;;;36.25;;
25824;SDS011;13658;44.534;18.694;2022-11-11T15:40:44;80.72;;;35.90;;
25824;SDS011;13658;44.534;18.694;2022-11-11T15:43:34;97.55;;;40.78;;
25824;SDS011;13658;44.534;18.694;2022-11-11T15:46:25;81.85;;;37.50;;
25824;SDS011;13658;44.534;18.694;2022-11-11T15:52:33;93.80;;;40.55;;
25824;SDS011;13658;44.534;18.694;2022-11-11T15:58:09;97.82;;;47.03;;
25824;SDS011;13658;44.534;18.694;2022-11-11T16:00:54;84.35;;;42.75;;
25824;SDS011;13658;44.534;18.694;2022-11-11T16:03:42;106.47;;;54.38;;
25824;SDS011;13658;44.534;18.694;2022-11-11T16:06:27;116.88;;;56.42;;
25824;SDS011;13658;44.534;18.694;2022-11-11T16:09:13;133.25;;;66.05;;
25824;SDS011;13658;44.534;18.694;2022-11-11T16:12:01;104.60;;;53.58;;
25824;SDS011;13658;44.534;18.694;2022-11-11T16:14:46;101.80;;;52.00;;
25824;SDS011;13658;44.534;18.694;2022-11-11T16:17:36;96.20;;;49.83;;
25824;SDS011;13658;44.534;18.694;2022-11-11T16:20:26;98.07;;;48.70;;
25824;SDS011;13658;44.534;18.694;2022-11-11T16:23:15;83.25;;;46.75;;
25824;SDS011;13658;44.534;18.694;2022-11-11T16:26:02;100.00;;;53.42;;
25824;SDS011;13658;44.534;18.694;2022-11-11T16:28:53;96.50;;;50.72;;
25824;SDS011;13658;44.534;18.694;2022-11-11T16:31:40;91.55;;;50.58;;
25824;SDS011;13658;44.534;18.694;2022-11-11T16:37:11;104.75;;;56.15;;
25824;SDS011;13658;44.534;18.694;2022-11-11T16:40:19;119.63;;;64.65;;
25824;SDS011;13658;44.534;18.694;2022-11-11T16:46:05;157.73;;;84.38;;
25824;SDS011;13658;44.534;18.694;2022-11-11T16:48:52;150.77;;;81.47;;
25824;SDS011;13658;44.534;18.694;2022-11-11T16:51:38;130.75;;;67.82;;
25824;SDS011;13658;44.534;18.694;2022-11-11T16:54:27;105.95;;;59.05;;
25824;SDS011;13658;44.534;18.694;2022-11-11T16:57:15;111.57;;;58.97;;
25824;SDS011;13658;44.534;18.694;2022-11-11T17:00:05;108.25;;;57.85;;
25824;SDS011;13658;44.534;18.694;2022-11-11T17:08:42;135.80;;;67.35;;
25824;SDS011;13658;44.534;18.694;2022-11-11T17:11:41;134.38;;;68.88;;
25824;SDS011;13658;44.534;18.694;2022-11-11T17:14:26;139.10;;;69.90;;
25824;SDS011;13658;44.534;18.694;2022-11-11T17:17:13;137.73;;;71.60;;
25824;SDS011;13658;44.534;18.694;2022-11-11T17:19:59;138.55;;;74.22;;
25824;SDS011;13658;44.534;18.694;2022-11-11T17:22:47;142.63;;;77.25;;
25824;SDS011;13658;44.534;18.694;2022-11-11T17:25:35;165.60;;;88.38;;
25824;SDS011;13658;44.534;18.694;2022-11-11T17:28:20;162.63;;;87.28;;
25824;SDS011;13658;44.534;18.694;2022-11-11T17:31:06;189.15;;;98.93;;
25824;SDS011;13658;44.534;18.694;2022-11-11T17:33:53;172.50;;;91.72;;
25824;SDS011;13658;44.534;18.694;2022-11-11T17:36:37;204.98;;;105.03;;
25824;SDS011;13658;44.534;18.694;2022-11-11T17:39:22;218.18;;;113.57;;
25824;SDS011;13658;44.534;18.694;2022-11-11T17:42:06;191.68;;;100.30;;
25824;SDS011;13658;44.534;18.694;2022-11-11T17:44:51;169.65;;;85.63;;
25824;SDS011;13658;44.534;18.694;2022-11-11T17:47:35;145.77;;;80.15;;
25824;SDS011;13658;44.534;18.694;2022-11-11T17:50:20;165.07;;;86.10;;
25824;SDS011;13658;44.534;18.694;2022-11-11T17:53:05;161.25;;;84.47;;
25824;SDS011;13658;44.534;18.694;2022-11-11T17:55:50;186.45;;;96.85;;
25824;SDS011;13658;44.534;18.694;2022-11-11T17:58:35;192.38;;;100.78;;
25824;SDS011;13658;44.534;18.694;2022-11-11T18:01:19;196.98;;;102.13;;
25824;SDS011;13658;44.534;18.694;2022-11-11T18:04:04;218.75;;;112.78;;
25824;SDS011;13658;44.534;18.694;2022-11-11T18:06:49;159.90;;;82.15;;
25824;SDS011;13658;44.534;18.694;2022-11-11T18:09:34;167.30;;;87.38;;
25824;SDS011;13658;44.534;18.694;2022-11-11T18:12:18;170.73;;;90.50;;
25824;SDS011;13658;44.534;18.694;2022-11-11T18:15:03;179.77;;;93.13;;
25824;SDS011;13658;44.534;18.694;2022-11-11T18:17:48;159.82;;;86.32;;
25824;SDS011;13658;44.534;18.694;2022-11-11T18:20:33;155.02;;;82.43;;
25824;SDS011;13658;44.534;18.694;2022-11-11T18:23:18;150.55;;;80.43;;
25824;SDS011;13658;44.534;18.694;2022-11-11T18:26:02;146.35;;;75.70;;
25824;SDS011;13658;44.534;18.694;2022-11-11T18:31:33;153.77;;;87.07;;
25824;SDS011;13658;44.534;18.694;2022-11-11T18:34:18;137.43;;;74.88;;
25824;SDS011;13658;44.534;18.694;2022-11-11T18:37:02;136.05;;;73.65;;
25824;SDS011;13658;44.534;18.694;2022-11-11T18:39:47;151.30;;;81.72;;
25824;SDS011;13658;44.534;18.694;2022-11-11T18:42:31;156.60;;;85.45;;
25824;SDS011;13658;44.534;18.694;2022-11-11T18:45:16;156.40;;;86.45;;
25824;SDS011;13658;44.534;18.694;2022-11-11T18:48:01;172.85;;;95.22;;
25824;SDS011;13658;44.534;18.694;2022-11-11T18:50:51;167.15;;;95.50;;
25824;SDS011;13658;44.534;18.694;2022-11-11T18:53:37;191.82;;;100.55;;
25824;SDS011;13658;44.534;18.694;2022-11-11T18:56:24;232.82;;;116.25;;
25824;SDS011;13658;44.534;18.694;2022-11-11T18:59:09;213.75;;;110.63;;
25824;SDS011;13658;44.534;18.694;2022-11-11T19:01:54;198.85;;;103.25;;